Main page
METAR-TAF:

METAR-TAF

Airports :

Bacha Khan International Airport

Peshawar, Pakistan

latitude: 34-01N, longitude: 071-35E, elevation: 359 m

Current weather observation

The report was made 31 minutes ago, at 03:00 UTC
Calm wind
Temperature 7°C
Humidity 81%
Pressure 1019 hPa
Visibility: 4000 m
haze

METAR: OPPS 030300Z 00000KT 4000 HZ NSC 07/04 Q1019

Time: 08:31 (03:31 UTC)

Forecast

The report was made 6 hours and 1 minutes ago, at 21:30 UTC
Forecast valid from 03 at 00 UTC to 04 at 06 UTC
Wind 2 kt from variable directions
Visibility: 2000 m
mist
Becoming
from 03 at 04 UTC to 03 at 06 UTC
Wind 4 kt from the Northeast
Visibility: 5000 m
haze
Becoming
from 03 at 12 UTC to 03 at 14 UTC
Wind 2 kt from variable directions
Visibility: 3000 m
Few clouds at a height of 10000 ft
smoke
Temporary
from 03 at 22 UTC to 04 at 02 UTC
Visibility: 2000 m
mist

TAF: OPPS 022130Z 0300/0406 VRB02KT 2000 BR NSC BECMG 0304/0306 05004KT 5000 HZ BECMG 0312/0314 VRB02KT 3000 FU FEW100 TEMPO 0322/0402 2000 BR

Weather observations and forecasts of more than 4000 airports (METAR and TAF reports).

The available stations are represented by yellow and red dots on the map.

Hover mouse over dot to see the name of the station.

Then click to see weather observations and forecasts.

To change the map : click on the green buttons with a black cross to zoom in, on the green button with a dash to zoom out, or on the green arrows for adjacent maps.


METAR-TAF: